createdAt,value
2023-05-14T00:00:49.080Z,11.30
2023-05-14T00:03:17.476Z,11.20
2023-05-14T00:05:46.946Z,11.20
2023-05-14T00:08:15.284Z,11.10
2023-05-14T00:10:43.344Z,11.10
2023-05-14T00:13:11.392Z,11.10
2023-05-14T00:15:39.864Z,11.00
2023-05-14T00:18:08.057Z,10.90
2023-05-14T00:20:36.413Z,10.90
2023-05-14T00:23:05.800Z,10.90
2023-05-14T00:25:34.078Z,10.90
2023-05-14T00:28:02.131Z,10.80
2023-05-14T00:30:30.615Z,10.80
2023-05-14T00:32:58.664Z,10.80
2023-05-14T00:35:26.977Z,10.80
2023-05-14T00:37:55.066Z,10.80
2023-05-14T00:40:27.539Z,10.70
2023-05-14T00:42:56.221Z,10.70
2023-05-14T00:45:24.593Z,10.70
2023-05-14T00:47:53.287Z,10.60
2023-05-14T00:50:22.123Z,10.60
2023-05-14T00:52:50.522Z,10.60
2023-05-14T00:55:19.157Z,10.60
2023-05-14T00:57:52.250Z,10.60
2023-05-14T01:00:20.965Z,10.50
2023-05-14T01:02:49.298Z,10.50
2023-05-14T01:05:17.608Z,10.50
2023-05-14T01:07:55.451Z,10.50
2023-05-14T01:10:29.262Z,10.40
2023-05-14T01:13:05.116Z,10.40
2023-05-14T01:15:35.944Z,10.40
2023-05-14T01:18:08.361Z,10.40
2023-05-14T01:20:36.826Z,10.40
2023-05-14T01:23:06.400Z,10.30
2023-05-14T01:25:35.264Z,10.30
2023-05-14T01:28:12.336Z,10.30
2023-05-14T01:30:46.183Z,10.30
2023-05-14T01:33:18.302Z,10.30
2023-05-14T01:35:49.660Z,10.30
2023-05-14T01:38:21.271Z,10.30
2023-05-14T01:40:51.540Z,10.20
2023-05-14T01:43:20.439Z,10.20
2023-05-14T01:45:48.978Z,10.20
2023-05-14T01:48:17.688Z,10.10
2023-05-14T01:50:45.911Z,10.10
2023-05-14T01:53:14.179Z,10.10
2023-05-14T01:55:43.824Z,10.00
2023-05-14T01:58:12.276Z,10.00
2023-05-14T02:00:40.423Z,10.00
2023-05-14T02:03:09.082Z,9.90
2023-05-14T02:05:37.274Z,9.90
2023-05-14T02:08:05.844Z,9.90
2023-05-14T02:10:34.033Z,9.90
2023-05-14T02:13:04.519Z,9.90
2023-05-14T02:15:32.663Z,9.90
2023-05-14T02:18:00.859Z,9.80
2023-05-14T02:20:28.937Z,9.80
2023-05-14T02:22:57.131Z,9.80
2023-05-14T02:25:25.462Z,9.70
2023-05-14T02:27:53.648Z,9.80
2023-05-14T02:30:23.452Z,9.70
2023-05-14T02:32:51.930Z,9.70
2023-05-14T02:35:20.155Z,9.70
2023-05-14T02:37:49.648Z,9.60
2023-05-14T02:40:17.826Z,9.60
2023-05-14T02:42:46.152Z,9.50
2023-05-14T02:45:14.190Z,9.50
2023-05-14T02:47:43.891Z,9.50
2023-05-14T02:50:12.368Z,9.40
2023-05-14T02:52:40.669Z,9.40
2023-05-14T02:55:10.074Z,9.40
2023-05-14T02:57:38.409Z,9.40
2023-05-14T03:00:09.092Z,9.40
2023-05-14T03:02:38.524Z,9.30
2023-05-14T03:05:09.343Z,9.30
2023-05-14T03:07:37.706Z,9.30
2023-05-14T03:10:09.095Z,9.30
2023-05-14T03:12:37.392Z,9.30
2023-05-14T03:15:05.843Z,9.20
2023-05-14T03:17:34.126Z,9.30
2023-05-14T03:20:02.197Z,9.20
2023-05-14T03:22:31.972Z,9.20
2023-05-14T03:24:59.998Z,9.20
2023-05-14T03:27:28.280Z,9.20
2023-05-14T03:29:56.403Z,9.20
2023-05-14T03:32:24.989Z,9.20
2023-05-14T03:34:53.071Z,9.20
2023-05-14T03:37:21.857Z,9.20
2023-05-14T03:39:51.313Z,9.20
2023-05-14T03:42:19.516Z,9.20
2023-05-14T03:44:49.103Z,9.20
2023-05-14T03:47:17.114Z,9.30
2023-05-14T03:49:45.517Z,9.30
2023-05-14T03:52:15.034Z,9.30
2023-05-14T03:54:45.477Z,9.30
2023-05-14T03:57:14.895Z,9.30
2023-05-14T03:59:43.420Z,9.40
2023-05-14T04:02:11.537Z,9.50
2023-05-14T04:04:40.275Z,9.50
2023-05-14T04:07:08.739Z,9.60
2023-05-14T04:09:37.086Z,9.70
2023-05-14T04:12:06.047Z,9.80
2023-05-14T04:14:36.687Z,9.90
2023-05-14T04:17:05.007Z,10.00
2023-05-14T04:19:33.169Z,10.20
2023-05-14T04:22:01.226Z,10.30
2023-05-14T04:24:29.529Z,10.40
2023-05-14T04:26:57.593Z,10.50
2023-05-14T04:29:25.950Z,10.70
2023-05-14T04:31:55.997Z,10.80
2023-05-14T04:34:24.424Z,10.90
2023-05-14T04:36:52.607Z,11.10
2023-05-14T04:39:22.701Z,11.20
2023-05-14T04:41:51.129Z,11.30
2023-05-14T04:44:19.433Z,11.40
2023-05-14T04:46:47.442Z,11.60
2023-05-14T04:49:17.077Z,11.60
2023-05-14T04:51:45.133Z,11.80
2023-05-14T04:54:13.541Z,12.00
2023-05-14T04:56:41.642Z,12.10
2023-05-14T04:59:09.850Z,12.30
2023-05-14T05:01:37.973Z,12.50
2023-05-14T05:04:06.427Z,12.60
2023-05-14T05:06:35.965Z,12.80
2023-05-14T05:09:04.488Z,13.00
2023-05-14T05:11:32.796Z,13.20
2023-05-14T05:14:00.968Z,13.40
2023-05-14T05:16:29.008Z,13.70
2023-05-14T05:18:57.339Z,14.00
2023-05-14T05:21:25.385Z,14.30
2023-05-14T05:23:55.052Z,14.50
2023-05-14T05:26:23.156Z,14.80
2023-05-14T05:28:51.303Z,15.00
2023-05-14T05:31:20.096Z,15.20
2023-05-14T05:33:48.437Z,15.30
2023-05-14T05:36:16.689Z,15.40
2023-05-14T05:38:44.806Z,15.50
2023-05-14T05:41:14.549Z,15.70
2023-05-14T05:43:42.569Z,15.90
2023-05-14T05:46:10.941Z,16.00
2023-05-14T05:48:39.055Z,16.10
2023-05-14T05:51:07.565Z,16.30
2023-05-14T05:53:35.625Z,16.50
2023-05-14T05:56:03.943Z,16.70
2023-05-14T05:58:33.351Z,16.90
2023-05-14T06:01:01.643Z,16.90
2023-05-14T06:03:29.733Z,17.10
2023-05-14T06:05:57.879Z,17.20
2023-05-14T06:08:25.907Z,17.30
2023-05-14T06:10:54.265Z,17.50
2023-05-14T06:13:22.303Z,17.60
2023-05-14T06:15:51.969Z,17.70
2023-05-14T06:18:19.994Z,17.80
2023-05-14T06:20:48.300Z,17.80
2023-05-14T06:23:16.358Z,17.90
2023-05-14T06:25:44.702Z,17.90
2023-05-14T06:28:12.750Z,18.00
2023-05-14T06:30:41.053Z,18.10
2023-05-14T06:33:10.689Z,18.20
2023-05-14T06:35:39.019Z,18.10
2023-05-14T06:38:07.064Z,18.10
2023-05-14T06:40:35.280Z,18.20
2023-05-14T06:43:03.336Z,18.10
2023-05-14T06:45:33.113Z,18.30
2023-05-14T06:48:01.484Z,18.30
2023-05-14T06:50:31.329Z,18.30
2023-05-14T06:52:59.383Z,18.40
2023-05-14T06:55:27.456Z,18.50
2023-05-14T06:57:55.628Z,18.60
2023-05-14T07:00:24.596Z,18.70
2023-05-14T07:02:53.017Z,18.90
2023-05-14T07:05:21.111Z,19.10
2023-05-14T07:07:50.632Z,19.40
2023-05-14T07:10:19.059Z,19.50
2023-05-14T07:12:47.147Z,19.60
2023-05-14T07:15:15.331Z,19.50
2023-05-14T07:17:43.419Z,19.50
2023-05-14T07:20:12.643Z,19.60
2023-05-14T07:22:40.928Z,19.80
2023-05-14T07:25:11.255Z,20.00
2023-05-14T07:27:39.442Z,20.20
2023-05-14T07:30:08.740Z,20.50
2023-05-14T07:32:37.106Z,20.60
2023-05-14T07:35:06.243Z,20.70
2023-05-14T07:37:34.649Z,20.90
2023-05-14T07:40:02.767Z,21.10
2023-05-14T07:42:36.608Z,21.20
2023-05-14T07:45:06.081Z,21.50
2023-05-14T07:47:35.067Z,21.90
2023-05-14T07:50:03.469Z,22.10
2023-05-14T07:52:31.761Z,22.30
2023-05-14T07:55:01.218Z,22.60
2023-05-14T07:57:29.595Z,22.90
2023-05-14T07:59:59.302Z,23.30
2023-05-14T08:02:28.257Z,23.60
2023-05-14T08:04:56.522Z,23.80
2023-05-14T08:07:24.895Z,23.90
2023-05-14T08:09:52.962Z,24.10
2023-05-14T08:12:21.248Z,24.20
2023-05-14T08:14:49.418Z,24.30
2023-05-14T08:17:19.046Z,24.50
2023-05-14T08:19:47.151Z,24.90
2023-05-14T08:22:15.510Z,25.30
2023-05-14T08:24:43.826Z,25.50
2023-05-14T08:27:12.136Z,25.90
2023-05-14T08:29:40.139Z,26.10
2023-05-14T08:32:16.033Z,26.20
2023-05-14T08:34:52.839Z,26.20
2023-05-14T08:37:21.123Z,26.20
2023-05-14T08:39:49.200Z,26.40
2023-05-14T08:42:21.870Z,26.60
2023-05-14T08:44:54.172Z,27.00
2023-05-14T08:47:24.928Z,27.30
2023-05-14T08:50:02.021Z,27.80
2023-05-14T08:52:30.660Z,28.20
2023-05-14T08:54:59.936Z,28.50
2023-05-14T08:57:29.925Z,28.60
2023-05-14T08:59:59.471Z,28.80
2023-05-14T09:02:31.708Z,28.60
2023-05-14T09:05:03.742Z,28.40
2023-05-14T09:07:35.389Z,28.20
2023-05-14T09:12:59.634Z,28.40
2023-05-14T09:15:29.059Z,28.80
2023-05-14T09:17:58.096Z,29.20
2023-05-14T09:20:28.445Z,29.40
2023-05-14T09:22:57.293Z,29.30
2023-05-14T09:25:28.723Z,29.10
2023-05-14T09:27:59.046Z,28.60
2023-05-14T09:30:32.177Z,28.20
2023-05-14T09:33:00.754Z,27.90
2023-05-14T09:35:30.173Z,27.90
2023-05-14T09:37:58.520Z,27.90
2023-05-14T09:40:26.761Z,28.00
2023-05-14T09:42:56.294Z,28.20
2023-05-14T09:45:24.521Z,28.20
2023-05-14T09:47:53.479Z,28.30
2023-05-14T09:50:21.905Z,28.10
2023-05-14T09:52:51.367Z,28.00
2023-05-14T09:55:21.329Z,27.90
2023-05-14T09:57:49.856Z,27.70
2023-05-14T10:00:19.367Z,27.50
2023-05-14T10:02:48.909Z,27.20
2023-05-14T10:05:17.754Z,27.00
2023-05-14T10:07:49.089Z,26.80
2023-05-14T10:10:22.206Z,26.70
2023-05-14T10:12:53.930Z,26.50
2023-05-14T10:15:25.409Z,26.30
2023-05-14T10:17:57.920Z,26.00
2023-05-14T10:20:27.795Z,25.80
2023-05-14T10:22:56.504Z,25.60
2023-05-14T10:25:26.498Z,25.70
2023-05-14T10:27:55.093Z,26.00
2023-05-14T10:30:24.430Z,26.40
2023-05-14T10:33:08.030Z,26.60
2023-05-14T10:36:02.010Z,26.60
2023-05-14T10:38:31.287Z,26.50
2023-05-14T10:41:02.939Z,26.40
2023-05-14T10:43:32.226Z,26.30
2023-05-14T10:46:01.487Z,26.20
2023-05-14T10:48:29.949Z,26.20
2023-05-14T10:50:59.061Z,26.00
2023-05-14T10:53:38.173Z,25.90
2023-05-14T10:56:10.228Z,25.90
2023-05-14T10:58:39.337Z,25.80
2023-05-14T11:01:08.936Z,25.60
2023-05-14T11:03:44.865Z,25.50
2023-05-14T11:06:16.178Z,25.50
2023-05-14T11:08:46.409Z,25.40
2023-05-14T11:11:16.350Z,25.40
2023-05-14T11:13:45.491Z,25.80
2023-05-14T11:16:23.441Z,27.00
2023-05-14T11:19:01.823Z,27.80
2023-05-14T11:21:31.854Z,28.20
2023-05-14T11:24:01.333Z,28.20
2023-05-14T11:26:32.551Z,28.00
2023-05-14T11:29:01.022Z,27.70
2023-05-14T11:31:29.333Z,27.50
2023-05-14T11:33:58.015Z,27.20
2023-05-14T11:36:27.735Z,26.80
2023-05-14T11:38:55.990Z,26.60
2023-05-14T11:41:24.544Z,26.40
2023-05-14T11:43:54.347Z,26.30
2023-05-14T11:46:22.609Z,26.70
2023-05-14T11:48:51.859Z,28.30
2023-05-14T11:51:20.028Z,30.90
2023-05-14T11:53:48.083Z,34.00
2023-05-14T11:56:16.473Z,35.40
2023-05-14T11:58:49.439Z,35.40
2023-05-14T12:01:19.243Z,34.50
2023-05-14T12:03:47.620Z,33.70
2023-05-14T12:06:16.027Z,32.90
2023-05-14T12:08:44.151Z,32.20
2023-05-14T12:11:12.414Z,31.70
2023-05-14T12:13:41.126Z,31.80
2023-05-14T12:16:09.390Z,32.00
2023-05-14T12:18:39.227Z,31.80
2023-05-14T12:21:08.839Z,31.80
2023-05-14T12:23:39.622Z,32.70
2023-05-14T12:26:09.870Z,33.30
2023-05-14T12:28:43.163Z,33.10
2023-05-14T12:31:11.520Z,32.50
2023-05-14T12:33:41.319Z,32.30
2023-05-14T12:36:21.280Z,33.60
2023-05-14T12:38:50.543Z,36.20
2023-05-14T12:41:18.849Z,38.70
2023-05-14T12:43:49.281Z,40.30
2023-05-14T12:46:17.520Z,40.20
2023-05-14T12:48:47.250Z,39.30
2023-05-14T12:51:15.477Z,38.00
2023-05-14T12:53:43.779Z,37.70
2023-05-14T12:56:12.479Z,38.60
2023-05-14T12:58:40.984Z,40.50
2023-05-14T13:01:09.095Z,42.40
2023-05-14T13:03:37.427Z,42.80
2023-05-14T13:06:07.122Z,42.50
2023-05-14T13:08:36.341Z,41.00
2023-05-14T13:11:04.406Z,39.70
2023-05-14T13:13:32.581Z,38.70
2023-05-14T13:16:00.991Z,37.50
2023-05-14T13:18:29.306Z,36.30
2023-05-14T13:20:57.360Z,35.20
2023-05-14T13:23:27.330Z,34.70
2023-05-14T13:25:55.454Z,35.90
2023-05-14T13:28:23.809Z,37.10
2023-05-14T13:31:06.885Z,36.70
2023-05-14T13:33:37.027Z,35.90
2023-05-14T13:36:05.855Z,35.80
2023-05-14T13:38:35.936Z,36.10
2023-05-14T13:41:04.158Z,35.30
2023-05-14T13:43:32.579Z,34.40
2023-05-14T13:46:01.087Z,33.50
2023-05-14T13:48:31.072Z,32.80
2023-05-14T13:50:59.233Z,32.20
2023-05-14T13:53:27.765Z,31.50
2023-05-14T13:55:58.481Z,31.20
2023-05-14T13:58:26.862Z,31.70
2023-05-14T14:00:55.544Z,32.50
2023-05-14T14:03:23.676Z,32.80
2023-05-14T14:05:52.236Z,32.30
2023-05-14T14:08:23.462Z,31.60
2023-05-14T14:10:54.570Z,30.70
2023-05-14T14:13:24.548Z,29.80
2023-05-14T14:15:52.925Z,29.00
2023-05-14T14:18:21.247Z,28.30
2023-05-14T14:20:49.451Z,27.60
2023-05-14T14:23:17.756Z,27.00
2023-05-14T14:25:46.031Z,26.40
2023-05-14T14:28:14.154Z,25.80
2023-05-14T14:30:43.884Z,25.50
2023-05-14T14:33:12.440Z,25.20
2023-05-14T14:35:40.704Z,25.00
2023-05-14T14:38:08.804Z,24.90
2023-05-14T14:40:36.985Z,24.80
2023-05-14T14:43:05.190Z,24.80
2023-05-14T14:45:33.455Z,24.70
2023-05-14T14:48:25.252Z,24.70
2023-05-14T14:50:53.770Z,24.50
2023-05-14T14:53:21.873Z,24.40
2023-05-14T14:55:50.793Z,24.30
2023-05-14T14:58:19.890Z,24.20
2023-05-14T15:00:48.092Z,24.10
2023-05-14T15:03:16.596Z,23.90
2023-05-14T15:05:46.568Z,23.80
2023-05-14T15:08:14.704Z,23.70
2023-05-14T15:10:43.303Z,23.50
2023-05-14T15:13:11.832Z,23.40
2023-05-14T15:15:40.142Z,23.30
2023-05-14T15:18:08.447Z,23.20
2023-05-14T15:20:36.645Z,23.20
2023-05-14T15:23:06.173Z,23.20
2023-05-14T15:25:34.424Z,23.20
2023-05-14T15:28:02.476Z,23.10
2023-05-14T15:30:31.282Z,23.10
2023-05-14T15:32:59.688Z,23.00
2023-05-14T15:35:27.988Z,23.00
2023-05-14T15:37:57.868Z,23.10
2023-05-14T15:40:28.327Z,23.10
2023-05-14T15:42:56.403Z,23.10
2023-05-14T15:45:24.647Z,23.00
2023-05-14T15:47:52.830Z,23.00
2023-05-14T15:50:21.598Z,23.00
2023-05-14T15:52:49.890Z,23.00
2023-05-14T15:55:18.073Z,23.10
2023-05-14T15:57:47.654Z,23.20
2023-05-14T16:00:16.520Z,23.30
2023-05-14T16:02:44.871Z,23.40
2023-05-14T16:05:13.056Z,23.50
2023-05-14T16:07:41.214Z,23.50
2023-05-14T16:10:10.269Z,23.40
2023-05-14T16:12:38.340Z,23.30
2023-05-14T16:15:09.214Z,23.20
2023-05-14T16:17:37.440Z,22.90
2023-05-14T16:20:06.535Z,22.70
2023-05-14T16:22:34.723Z,22.40
2023-05-14T16:25:04.534Z,22.20
2023-05-14T16:27:33.003Z,22.10
2023-05-14T16:30:01.077Z,21.90
2023-05-14T16:32:30.822Z,21.70
2023-05-14T16:34:58.942Z,21.50
2023-05-14T16:37:27.231Z,21.30
2023-05-14T16:39:55.332Z,21.10
2023-05-14T16:42:23.395Z,21.00
2023-05-14T16:44:51.585Z,20.80
2023-05-14T16:47:19.756Z,20.70
2023-05-14T16:49:49.325Z,20.60
2023-05-14T16:52:17.404Z,20.50
2023-05-14T16:54:45.807Z,20.50
2023-05-14T16:57:13.934Z,20.30
2023-05-14T16:59:42.143Z,20.30
2023-05-14T17:02:10.891Z,20.20
2023-05-14T17:04:41.968Z,20.10
2023-05-14T17:07:11.849Z,20.10
2023-05-14T17:09:39.883Z,20.00
2023-05-14T17:12:09.696Z,20.00
2023-05-14T17:14:37.763Z,19.90
2023-05-14T17:17:08.411Z,19.80
2023-05-14T17:19:36.502Z,19.70
2023-05-14T17:22:05.840Z,19.70
2023-05-14T17:24:36.583Z,19.60
2023-05-14T17:27:05.083Z,19.60
2023-05-14T17:29:33.505Z,19.40
2023-05-14T17:32:03.484Z,19.30
2023-05-14T17:34:32.036Z,19.30
2023-05-14T17:37:00.863Z,19.10
2023-05-14T17:39:29.336Z,19.00
2023-05-14T17:41:58.869Z,18.90
2023-05-14T17:44:27.064Z,18.80
2023-05-14T17:46:55.287Z,18.70
2023-05-14T17:49:23.345Z,18.60
2023-05-14T17:51:51.614Z,18.50
2023-05-14T17:54:19.649Z,18.30
2023-05-14T17:56:50.934Z,18.20
2023-05-14T17:59:21.957Z,18.10
2023-05-14T18:01:51.938Z,18.00
2023-05-14T18:04:20.319Z,17.90
2023-05-14T18:06:48.402Z,17.80
2023-05-14T18:09:16.475Z,17.70
2023-05-14T18:11:45.044Z,17.60
2023-05-14T18:14:13.128Z,17.50
2023-05-14T18:16:42.927Z,17.40
2023-05-14T18:19:11.481Z,17.30
2023-05-14T18:21:39.625Z,17.20
2023-05-14T18:24:08.712Z,17.20
2023-05-14T18:26:36.890Z,17.10
2023-05-14T18:29:05.256Z,17.00
2023-05-14T18:31:33.384Z,16.90
2023-05-14T18:34:03.100Z,16.80
2023-05-14T18:36:31.368Z,16.70
2023-05-14T18:38:59.408Z,16.60
2023-05-14T18:41:27.868Z,16.50
2023-05-14T18:43:55.916Z,16.40
2023-05-14T18:46:24.385Z,16.30
2023-05-14T18:48:52.623Z,16.20
2023-05-14T18:51:22.152Z,16.10
2023-05-14T18:53:50.269Z,16.00
2023-05-14T18:56:18.456Z,15.90
2023-05-14T18:58:46.507Z,15.80
2023-05-14T19:01:14.553Z,15.80
2023-05-14T19:03:42.880Z,15.70
2023-05-14T19:06:11.264Z,15.60
2023-05-14T19:08:41.336Z,15.50
2023-05-14T19:11:09.600Z,15.40
2023-05-14T19:13:37.670Z,15.30
2023-05-14T19:16:06.720Z,15.20
2023-05-14T19:18:35.331Z,15.10
2023-05-14T19:21:03.622Z,15.10
2023-05-14T19:23:32.728Z,15.00
2023-05-14T19:26:02.568Z,14.90
2023-05-14T19:28:30.858Z,14.80
2023-05-14T19:30:58.946Z,14.80
2023-05-14T19:33:27.801Z,14.70
2023-05-14T19:35:56.481Z,14.70
2023-05-14T19:38:24.868Z,14.60
2023-05-14T19:40:56.697Z,14.50
2023-05-14T19:43:27.981Z,14.50
2023-05-14T19:45:56.129Z,14.40
2023-05-14T19:48:24.493Z,14.40
2023-05-14T19:50:52.881Z,14.30
2023-05-14T19:53:21.223Z,14.30
2023-05-14T19:55:49.242Z,14.20
2023-05-14T19:58:17.521Z,14.20
2023-05-14T20:00:47.377Z,14.20
2023-05-14T20:03:16.166Z,14.10
2023-05-14T20:05:46.134Z,14.10
2023-05-14T20:08:14.342Z,14.00
2023-05-14T20:10:42.544Z,14.00
2023-05-14T20:13:10.762Z,13.90
2023-05-14T20:15:38.844Z,13.90
2023-05-14T20:18:08.608Z,13.90
2023-05-14T20:20:36.776Z,13.80
2023-05-14T20:23:05.008Z,13.80
2023-05-14T20:25:33.581Z,13.80
2023-05-14T20:28:01.941Z,13.80
2023-05-14T20:30:30.166Z,13.80
2023-05-14T20:32:58.383Z,13.80
2023-05-14T20:35:28.197Z,13.80
2023-05-14T20:37:56.348Z,13.80
2023-05-14T20:40:25.412Z,13.90
2023-05-14T20:42:53.539Z,13.90
2023-05-14T20:45:21.921Z,13.90
2023-05-14T20:47:50.063Z,14.00
2023-05-14T20:50:18.452Z,14.00
2023-05-14T20:52:48.207Z,14.00
2023-05-14T20:55:16.404Z,14.10
2023-05-14T20:57:44.738Z,14.10
2023-05-14T21:00:14.004Z,14.10
2023-05-14T21:02:42.312Z,14.10
2023-05-14T21:05:10.996Z,14.10
2023-05-14T21:07:39.552Z,14.10
2023-05-14T21:10:10.242Z,14.20
2023-05-14T21:12:38.388Z,14.20
2023-05-14T21:15:07.537Z,14.20
2023-05-14T21:17:35.634Z,14.10
2023-05-14T21:20:04.038Z,14.10
2023-05-14T21:22:32.096Z,14.00
2023-05-14T21:25:00.403Z,14.00
2023-05-14T21:27:29.966Z,14.00
2023-05-14T21:29:58.400Z,13.90
2023-05-14T21:32:26.527Z,13.90
2023-05-14T21:34:54.873Z,13.80
2023-05-14T21:37:23.439Z,13.80
2023-05-14T21:39:51.921Z,13.70
2023-05-14T21:42:21.211Z,13.70
2023-05-14T21:44:50.807Z,13.60
2023-05-14T21:47:21.074Z,13.60
2023-05-14T21:49:49.480Z,13.60
2023-05-14T21:52:17.716Z,13.50
2023-05-14T21:54:46.061Z,13.50
2023-05-14T21:57:14.189Z,13.50
2023-05-14T21:59:42.755Z,13.50
2023-05-14T22:02:12.352Z,13.40
2023-05-14T22:04:40.605Z,13.40
2023-05-14T22:07:08.880Z,13.40
2023-05-14T22:09:36.958Z,13.40
2023-05-14T22:12:05.889Z,13.40
2023-05-14T22:14:34.242Z,13.40
2023-05-14T22:17:02.497Z,13.40
2023-05-14T22:19:32.091Z,13.40
2023-05-14T22:22:00.519Z,13.50
2023-05-14T22:24:28.734Z,13.40
2023-05-14T22:26:56.783Z,13.40
2023-05-14T22:29:24.992Z,13.40
2023-05-14T22:31:53.153Z,13.40
2023-05-14T22:34:21.274Z,13.40
2023-05-14T22:36:50.886Z,13.30
2023-05-14T22:39:18.957Z,13.30
2023-05-14T22:41:47.278Z,13.30
2023-05-14T22:44:15.452Z,13.20
2023-05-14T22:46:43.845Z,13.20
2023-05-14T22:49:13.582Z,13.20
2023-05-14T22:51:42.390Z,13.10
2023-05-14T22:54:11.972Z,13.10
2023-05-14T22:56:40.324Z,13.10
2023-05-14T22:59:10.286Z,13.00
2023-05-14T23:01:38.654Z,13.00
2023-05-14T23:04:07.007Z,12.90
2023-05-14T23:06:38.248Z,12.90
2023-05-14T23:09:06.482Z,12.90
2023-05-14T23:11:36.002Z,12.80
2023-05-14T23:14:07.104Z,12.80
2023-05-14T23:16:35.340Z,12.70
2023-05-14T23:19:03.716Z,12.70
2023-05-14T23:21:32.241Z,12.60
2023-05-14T23:24:00.308Z,12.60
2023-05-14T23:26:28.738Z,12.50
2023-05-14T23:28:58.121Z,12.50
2023-05-14T23:31:26.234Z,12.40
2023-05-14T23:33:54.367Z,12.40
2023-05-14T23:36:22.542Z,12.30
2023-05-14T23:38:50.981Z,12.30
2023-05-14T23:41:19.096Z,12.20
2023-05-14T23:43:48.883Z,12.20
2023-05-14T23:46:18.642Z,12.10
2023-05-14T23:48:47.008Z,12.00
2023-05-14T23:51:15.111Z,12.00
2023-05-14T23:53:45.976Z,12.00
2023-05-14T23:56:14.171Z,11.90
2023-05-14T23:58:42.610Z,11.90
